createdAt,value
2022-10-18T00:01:41.300Z,5.80
2022-10-18T00:04:09.445Z,8.88
2022-10-18T00:06:39.883Z,6.78
2022-10-18T00:09:07.626Z,5.40
2022-10-18T00:11:35.893Z,5.10
2022-10-18T00:14:04.364Z,5.85
2022-10-18T00:16:32.814Z,7.08
2022-10-18T00:19:01.040Z,6.53
2022-10-18T00:21:29.246Z,7.17
2022-10-18T00:23:57.453Z,8.95
2022-10-18T00:26:27.034Z,7.17
2022-10-18T00:28:56.812Z,7.90
2022-10-18T00:31:26.378Z,9.45
2022-10-18T00:33:56.164Z,7.60
2022-10-18T00:36:25.073Z,7.60
2022-10-18T00:38:53.661Z,9.58
2022-10-18T00:41:23.064Z,6.87
2022-10-18T00:43:52.807Z,7.10
2022-10-18T00:46:21.181Z,6.85
2022-10-18T00:48:49.656Z,6.60
2022-10-18T00:51:19.316Z,6.40
2022-10-18T00:53:47.770Z,8.03
2022-10-18T00:56:15.966Z,7.80
2022-10-18T00:58:45.051Z,7.58
2022-10-18T01:01:13.291Z,7.62
2022-10-18T01:03:42.622Z,9.23
2022-10-18T01:06:10.856Z,9.03
2022-10-18T01:08:46.633Z,11.68
2022-10-18T01:11:25.474Z,9.30
2022-10-18T01:14:01.166Z,8.53
2022-10-18T01:16:33.634Z,10.53
2022-10-18T01:19:03.374Z,8.65
2022-10-18T01:21:33.125Z,7.72
2022-10-18T01:24:19.548Z,10.13
2022-10-18T01:26:49.323Z,9.40
2022-10-18T01:29:25.025Z,7.83
2022-10-18T01:31:59.504Z,9.20
2022-10-18T01:34:28.895Z,9.78
2022-10-18T01:36:57.698Z,11.68
2022-10-18T01:39:27.469Z,10.20
2022-10-18T01:41:56.583Z,9.68
2022-10-18T01:44:26.272Z,8.90
2022-10-18T01:46:55.764Z,8.85
2022-10-18T01:49:25.044Z,10.23
2022-10-18T01:51:53.699Z,9.58
2022-10-18T01:54:26.397Z,10.35
2022-10-18T01:56:56.142Z,9.93
2022-10-18T01:59:31.818Z,10.25
2022-10-18T02:02:04.656Z,10.50
2022-10-18T02:07:13.790Z,10.40
2022-10-18T02:09:45.153Z,9.73
2022-10-18T02:12:14.190Z,10.95
2022-10-18T02:14:43.861Z,8.93
2022-10-18T02:17:13.248Z,10.10
2022-10-18T02:19:43.061Z,11.20
2022-10-18T02:22:12.425Z,11.48
2022-10-18T02:24:42.174Z,9.85
2022-10-18T02:27:10.436Z,12.55
2022-10-18T02:29:39.413Z,11.60
2022-10-18T02:32:12.067Z,10.85
2022-10-18T02:34:41.965Z,10.60
2022-10-18T02:37:11.236Z,12.80
2022-10-18T02:39:46.994Z,10.60
2022-10-18T02:42:15.773Z,12.00
2022-10-18T02:44:44.049Z,10.88
2022-10-18T02:47:22.651Z,12.82
2022-10-18T02:49:50.876Z,11.80
2022-10-18T02:52:19.076Z,13.38
2022-10-18T02:54:47.294Z,15.03
2022-10-18T02:57:15.489Z,13.62
2022-10-18T02:59:43.715Z,12.30
2022-10-18T03:02:11.969Z,13.98
2022-10-18T03:04:40.167Z,15.15
2022-10-18T03:07:08.417Z,13.08
2022-10-18T03:09:36.626Z,15.43
2022-10-18T03:12:04.987Z,17.23
2022-10-18T03:14:33.207Z,12.23
2022-10-18T03:17:01.420Z,14.43
2022-10-18T03:19:29.655Z,13.65
2022-10-18T03:21:57.865Z,15.05
2022-10-18T03:24:26.079Z,14.00
2022-10-18T03:26:54.316Z,17.07
2022-10-18T03:29:22.483Z,15.32
2022-10-18T03:31:50.695Z,16.57
2022-10-18T03:34:18.916Z,18.30
2022-10-18T03:36:47.129Z,17.48
2022-10-18T03:39:15.438Z,16.57
2022-10-18T03:41:43.657Z,18.77
2022-10-18T03:44:11.829Z,16.02
2022-10-18T03:46:40.051Z,21.37
2022-10-18T03:49:08.260Z,17.02
2022-10-18T03:51:36.480Z,18.98
2022-10-18T03:54:05.006Z,20.15
2022-10-18T03:56:33.195Z,21.60
2022-10-18T03:59:02.596Z,25.92
2022-10-18T04:01:31.302Z,18.85
2022-10-18T04:03:59.606Z,15.95
2022-10-18T04:06:27.810Z,17.48
2022-10-18T04:09:15.412Z,14.60
2022-10-18T04:11:43.607Z,13.30
2022-10-18T04:14:11.837Z,18.70
2022-10-18T04:16:40.066Z,16.97
2022-10-18T04:19:08.267Z,16.48
2022-10-18T04:21:36.501Z,19.90
2022-10-18T04:24:04.985Z,19.90
2022-10-18T04:26:33.198Z,19.70
2022-10-18T04:31:29.004Z,14.23
2022-10-18T04:33:57.211Z,16.70
2022-10-18T04:36:25.436Z,16.35
2022-10-18T04:38:53.642Z,15.15
2022-10-18T04:41:21.854Z,17.52
2022-10-18T04:43:50.055Z,16.95
2022-10-18T04:46:18.279Z,16.20
2022-10-18T04:48:46.516Z,17.95
2022-10-18T04:51:14.811Z,22.95
2022-10-18T04:53:43.016Z,21.62
2022-10-18T04:56:11.224Z,25.08
2022-10-18T04:58:39.460Z,24.92
2022-10-18T05:01:08.459Z,23.12
2022-10-18T05:03:36.732Z,22.07
2022-10-18T05:06:05.412Z,24.63
2022-10-18T05:08:34.703Z,21.02
2022-10-18T05:11:03.365Z,23.92
2022-10-18T05:13:31.683Z,24.25
2022-10-18T05:16:00.686Z,19.60
2022-10-18T05:18:28.913Z,24.75
2022-10-18T05:20:57.136Z,25.82
2022-10-18T05:23:25.712Z,22.48
2022-10-18T05:25:54.495Z,25.97
2022-10-18T05:28:41.164Z,21.80
2022-10-18T05:30:54.222Z,25.95
2022-10-18T05:35:49.984Z,21.70
2022-10-18T05:38:18.208Z,25.92
2022-10-18T05:40:46.446Z,23.12
2022-10-18T05:43:14.766Z,29.40
2022-10-18T05:45:44.497Z,27.13
2022-10-18T05:48:12.722Z,24.87
2022-10-18T05:50:40.952Z,29.12
2022-10-18T05:53:12.296Z,26.55
2022-10-18T05:55:39.255Z,24.32
2022-10-18T05:58:07.489Z,30.08
2022-10-18T06:00:36.730Z,22.27
2022-10-18T06:03:04.973Z,30.95
2022-10-18T06:05:33.247Z,26.97
2022-10-18T06:08:02.516Z,25.25
2022-10-18T06:10:31.601Z,27.22
2022-10-18T06:12:59.832Z,24.98
2022-10-18T06:15:28.049Z,28.38
2022-10-18T06:17:56.274Z,25.37
2022-10-18T06:20:24.484Z,24.32
2022-10-18T06:22:53.657Z,26.40
2022-10-18T06:25:21.862Z,23.67
2022-10-18T06:27:50.378Z,24.32
2022-10-18T06:30:18.631Z,23.02
2022-10-18T06:32:46.870Z,26.20
2022-10-18T06:35:15.150Z,29.10
2022-10-18T06:40:11.734Z,25.10
2022-10-18T06:42:40.234Z,25.00
2022-10-18T06:45:08.920Z,26.60
2022-10-18T06:47:37.241Z,27.93
2022-10-18T06:50:05.683Z,24.82
2022-10-18T06:52:34.106Z,25.30
2022-10-18T06:55:06.058Z,21.45
2022-10-18T06:57:32.398Z,21.30
2022-10-18T07:00:00.631Z,25.75
2022-10-18T07:02:29.003Z,25.30
2022-10-18T07:04:57.370Z,23.18
2022-10-18T07:07:25.656Z,24.15
2022-10-18T07:09:53.890Z,26.82
2022-10-18T07:12:22.102Z,21.90
2022-10-18T07:14:50.315Z,32.05
2022-10-18T07:17:18.565Z,46.00
2022-10-18T07:19:46.756Z,39.08
2022-10-18T07:22:14.918Z,40.73
2022-10-18T07:24:43.135Z,41.50
2022-10-18T07:27:11.351Z,41.00
2022-10-18T07:29:40.354Z,36.33
2022-10-18T07:32:08.578Z,38.17
2022-10-18T07:34:36.774Z,44.20
2022-10-18T07:37:05.018Z,43.42
2022-10-18T07:39:33.271Z,39.78
2022-10-18T07:42:01.454Z,48.33
2022-10-18T07:44:29.598Z,38.48
2022-10-18T07:46:57.811Z,39.10
2022-10-18T07:49:26.010Z,35.55
2022-10-18T07:51:54.293Z,35.58
2022-10-18T07:54:22.529Z,41.18
2022-10-18T07:56:50.738Z,42.65
2022-10-18T07:59:18.877Z,35.25
2022-10-18T08:01:47.126Z,37.85
2022-10-18T08:04:16.608Z,46.42
2022-10-18T08:06:44.982Z,47.30
2022-10-18T08:09:13.231Z,46.33
2022-10-18T08:11:41.417Z,44.35
2022-10-18T08:14:09.615Z,45.40
2022-10-18T08:16:37.852Z,48.13
2022-10-18T08:19:06.074Z,48.50
2022-10-18T08:21:34.302Z,44.10
2022-10-18T08:24:02.504Z,49.93
2022-10-18T08:26:30.749Z,44.08
2022-10-18T08:29:17.718Z,45.38
2022-10-18T08:31:29.057Z,47.85
2022-10-18T08:33:57.449Z,42.35
2022-10-18T08:36:25.828Z,49.27
2022-10-18T08:44:09.735Z,46.10
2022-10-18T08:46:39.621Z,50.50
2022-10-18T08:51:42.785Z,49.75
2022-10-18T08:54:12.668Z,49.75
2022-10-18T11:04:31.476Z,103.92
2022-10-18T11:07:09.378Z,106.67
2022-10-18T11:09:53.134Z,100.72
2022-10-18T11:12:33.457Z,105.78
2022-10-18T11:15:10.427Z,98.82
2022-10-18T11:17:56.619Z,84.10
2022-10-18T11:57:38.545Z,35.05
2022-10-18T12:00:11.158Z,33.00
2022-10-18T12:02:48.856Z,27.17
2022-10-18T12:05:23.446Z,29.10
2022-10-18T12:07:49.716Z,26.73
2022-10-18T12:10:26.321Z,33.90
2022-10-18T12:13:01.264Z,28.52
2022-10-18T12:15:30.169Z,28.83
2022-10-18T12:18:02.873Z,26.77
2022-10-18T12:20:32.635Z,28.30
2022-10-18T12:23:02.352Z,26.95
2022-10-18T12:25:31.791Z,27.10
2022-10-18T12:28:04.749Z,28.77
2022-10-18T12:30:34.853Z,26.80
2022-10-18T12:33:26.552Z,25.62
2022-10-18T12:35:38.711Z,24.87
2022-10-18T12:38:20.479Z,26.05
2022-10-18T12:40:50.390Z,25.80
2022-10-18T12:43:20.209Z,20.02
2022-10-18T12:45:50.018Z,23.38
2022-10-18T12:48:19.771Z,18.52
2022-10-18T12:50:49.513Z,17.85
2022-10-18T12:53:19.613Z,20.90
2022-10-18T12:55:49.670Z,21.00
2022-10-18T12:58:22.483Z,17.67
2022-10-18T13:03:19.710Z,20.17
2022-10-18T13:05:54.310Z,17.73
2022-10-18T13:08:37.592Z,18.73
2022-10-18T13:11:12.849Z,17.55
2022-10-18T13:13:45.541Z,20.40
2022-10-18T13:16:15.307Z,15.90
2022-10-18T13:18:45.119Z,17.20
2022-10-18T13:21:54.825Z,17.85
2022-10-18T13:24:41.984Z,18.50
2022-10-18T13:30:41.443Z,14.53
2022-10-18T13:39:48.791Z,15.95
2022-10-18T13:42:27.588Z,15.53
2022-10-18T13:45:28.151Z,14.28
2022-10-18T13:47:56.513Z,12.23
2022-10-18T13:56:25.765Z,10.80
2022-10-18T13:59:15.337Z,11.75
2022-10-18T14:04:30.624Z,10.32
2022-10-18T14:07:02.347Z,14.93
2022-10-18T14:09:43.610Z,13.78
2022-10-18T14:12:20.528Z,16.02
2022-10-18T14:17:51.882Z,11.18
2022-10-18T14:20:27.362Z,11.97
2022-10-18T14:22:56.108Z,11.25
2022-10-18T14:25:25.837Z,10.60
2022-10-18T14:28:14.110Z,13.90
2022-10-18T14:30:53.220Z,8.98
2022-10-18T14:33:35.358Z,12.95
2022-10-18T14:36:10.293Z,13.87
2022-10-18T14:38:39.266Z,12.93
2022-10-18T14:41:38.665Z,11.83
2022-10-18T14:53:55.782Z,11.20
2022-10-18T14:56:35.754Z,11.65
2022-10-18T15:02:51.419Z,10.82
2022-10-18T15:05:22.386Z,9.48
2022-10-18T15:07:53.125Z,11.70
2022-10-18T15:10:33.048Z,10.68
2022-10-18T15:13:09.808Z,12.50
2022-10-18T15:15:35.668Z,10.55
2022-10-18T15:18:06.493Z,9.65
2022-10-18T15:20:39.355Z,7.85
2022-10-18T15:26:14.576Z,12.78
2022-10-18T15:28:47.925Z,11.57
2022-10-18T15:31:29.216Z,12.15
2022-10-18T15:34:12.495Z,11.00
2022-10-18T15:36:41.166Z,15.53
2022-10-18T15:39:11.165Z,11.57
2022-10-18T15:41:40.749Z,12.70
2022-10-18T15:44:13.329Z,13.65
2022-10-18T15:46:40.398Z,10.00
2022-10-18T15:49:15.833Z,12.33
2022-10-18T15:51:50.380Z,10.72
2022-10-18T15:54:19.593Z,9.95
2022-10-18T15:56:47.910Z,9.63
2022-10-18T15:59:26.750Z,8.98
2022-10-18T16:01:55.409Z,7.10
2022-10-18T16:04:25.269Z,11.05
2022-10-18T16:06:55.269Z,8.75
2022-10-18T16:09:25.084Z,9.35
2022-10-18T16:11:57.083Z,11.38
2022-10-18T16:14:23.267Z,11.88
2022-10-18T16:16:53.021Z,8.85
2022-10-18T16:19:23.886Z,10.35
2022-10-18T16:21:53.428Z,9.93
2022-10-18T16:24:22.219Z,8.93
2022-10-18T16:26:50.600Z,11.38
2022-10-18T16:29:24.955Z,12.58
2022-10-18T16:31:54.898Z,8.05
2022-10-18T16:34:23.454Z,8.90
2022-10-18T16:36:51.684Z,10.28
2022-10-18T16:39:22.190Z,8.53
2022-10-18T16:41:51.609Z,10.32
2022-10-18T16:44:20.158Z,9.13
2022-10-18T16:46:52.385Z,8.73
2022-10-18T16:49:24.913Z,7.53
2022-10-18T16:51:55.295Z,9.78
2022-10-18T16:54:23.584Z,6.25
2022-10-18T16:56:51.947Z,6.30
2022-10-18T16:59:30.900Z,9.73
2022-10-18T17:02:00.823Z,9.83
2022-10-18T17:04:29.289Z,8.25
2022-10-18T17:06:58.765Z,6.78
2022-10-18T17:09:30.001Z,8.43
2022-10-18T17:11:58.278Z,13.60
2022-10-18T17:14:26.556Z,12.90
2022-10-18T17:16:57.481Z,6.30
2022-10-18T17:19:24.842Z,7.40
2022-10-18T17:21:53.255Z,8.53
2022-10-18T17:24:21.657Z,9.93
2022-10-18T17:26:49.894Z,10.45
2022-10-18T17:29:20.249Z,9.03
2022-10-18T17:31:48.616Z,9.55
2022-10-18T17:34:21.180Z,11.43
2022-10-18T17:36:48.550Z,12.13
2022-10-18T17:39:16.803Z,12.25
2022-10-18T17:41:47.442Z,8.63
2022-10-18T17:44:15.665Z,11.70
2022-10-18T17:46:45.629Z,12.55
2022-10-18T17:49:17.555Z,10.18
2022-10-18T17:51:46.389Z,8.90
2022-10-18T17:54:16.354Z,11.88
2022-10-18T17:56:49.883Z,13.08
2022-10-18T17:59:17.841Z,13.68
2022-10-18T18:04:14.789Z,9.55
2022-10-18T18:06:45.222Z,12.78
2022-10-18T18:09:14.231Z,9.38
2022-10-18T18:11:43.757Z,9.68
2022-10-18T18:14:12.943Z,7.50
2022-10-18T18:16:42.457Z,10.93
2022-10-18T18:19:11.810Z,12.70
2022-10-18T18:21:40.415Z,11.85
2022-10-18T18:24:09.983Z,11.50
2022-10-18T18:26:39.062Z,8.78
2022-10-18T18:29:07.310Z,11.57
2022-10-18T18:31:38.793Z,9.45
2022-10-18T18:34:05.916Z,10.40
2022-10-18T18:36:34.217Z,7.58
2022-10-18T18:39:04.235Z,10.88
2022-10-18T18:41:32.530Z,8.83
2022-10-18T18:44:02.140Z,10.35
2022-10-18T18:46:33.580Z,11.93
2022-10-18T18:49:02.082Z,10.35
2022-10-18T18:51:32.011Z,10.68
2022-10-18T18:54:00.803Z,7.95
2022-10-18T18:56:33.591Z,7.83
2022-10-18T18:59:02.063Z,10.08
2022-10-18T19:01:31.797Z,11.00
2022-10-18T19:04:00.284Z,8.88
2022-10-18T19:06:29.869Z,8.90
2022-10-18T19:09:03.162Z,9.55
2022-10-18T19:11:33.040Z,13.65
2022-10-18T19:14:04.791Z,8.65
2022-10-18T19:16:34.444Z,13.30
2022-10-18T19:19:05.884Z,11.70
2022-10-18T19:21:35.243Z,10.00
2022-10-18T19:24:03.579Z,8.63
2022-10-18T19:26:39.884Z,9.18
2022-10-18T19:29:15.880Z,9.78
2022-10-18T19:31:45.588Z,8.98
2022-10-18T19:34:14.436Z,13.48
2022-10-18T19:36:48.593Z,10.63
2022-10-18T19:39:21.173Z,10.75
2022-10-18T19:41:50.607Z,11.25
2022-10-18T19:44:38.281Z,9.05
2022-10-18T19:47:07.537Z,12.43
2022-10-18T19:49:35.952Z,10.70
2022-10-18T19:52:04.391Z,13.22
2022-10-18T19:54:37.046Z,11.65
2022-10-18T19:57:05.520Z,12.80
2022-10-18T19:59:35.465Z,7.92
2022-10-18T20:02:04.574Z,15.23
2022-10-18T20:04:34.890Z,10.15
2022-10-18T20:07:04.301Z,15.03
2022-10-18T20:09:32.807Z,11.12
2022-10-18T20:12:01.077Z,11.15
2022-10-18T20:14:29.249Z,8.28
2022-10-18T20:16:57.888Z,10.80
2022-10-18T20:19:26.081Z,8.35
2022-10-18T20:21:56.255Z,6.83
2022-10-18T20:24:24.677Z,7.55
2022-10-18T20:29:23.429Z,8.33
2022-10-18T20:31:54.575Z,8.10
2022-10-18T20:34:24.551Z,7.65
2022-10-18T20:36:54.422Z,6.20
2022-10-18T20:39:23.188Z,6.85
2022-10-18T20:41:51.686Z,8.65
2022-10-18T20:44:21.216Z,8.65
2022-10-18T20:46:49.829Z,6.40
2022-10-18T20:49:18.503Z,9.48
2022-10-18T20:51:46.953Z,10.63
2022-10-18T20:54:15.380Z,8.78
2022-10-18T20:56:43.835Z,9.90
2022-10-18T20:59:12.202Z,10.48
2022-10-18T21:01:40.756Z,8.68
2022-10-18T21:04:12.585Z,7.17
2022-10-18T21:06:42.051Z,10.38
2022-10-18T21:09:18.074Z,12.28
2022-10-18T21:11:47.788Z,6.92
2022-10-18T21:14:16.928Z,6.17
2022-10-18T21:16:45.710Z,6.42
2022-10-18T21:19:15.030Z,10.20
2022-10-18T21:21:44.306Z,9.80
2022-10-18T21:24:13.303Z,7.10
2022-10-18T21:26:41.582Z,10.18
2022-10-18T21:29:10.973Z,11.45
2022-10-18T21:31:40.402Z,7.25
2022-10-18T21:34:11.818Z,6.35
2022-10-18T21:36:40.401Z,9.38
2022-10-18T21:39:09.905Z,10.58
2022-10-18T21:41:38.269Z,8.98
2022-10-18T21:44:08.365Z,8.20
2022-10-18T21:46:36.577Z,8.73
2022-10-18T21:49:04.837Z,9.53
2022-10-18T21:51:33.044Z,7.55
2022-10-18T21:54:01.268Z,6.40
2022-10-18T21:56:30.756Z,8.20
2022-10-18T21:58:59.404Z,9.13
2022-10-18T22:01:29.181Z,6.33
2022-10-18T22:03:57.626Z,8.25
2022-10-18T22:06:28.379Z,9.33
2022-10-18T22:08:58.127Z,6.78
2022-10-18T22:11:27.887Z,8.80
2022-10-18T22:13:56.122Z,8.28
2022-10-18T22:16:24.708Z,8.20
2022-10-18T22:18:53.499Z,7.90
2022-10-18T22:21:21.744Z,9.13
2022-10-18T22:23:51.441Z,10.82
2022-10-18T22:26:23.799Z,9.75
2022-10-18T22:28:59.317Z,5.33
2022-10-18T22:31:28.970Z,8.28
2022-10-18T22:33:58.445Z,4.53
2022-10-18T22:36:27.233Z,7.22
2022-10-18T22:38:55.514Z,7.85
2022-10-18T22:41:23.746Z,29.32
2022-10-18T22:43:57.349Z,6.85
2022-10-18T22:46:26.080Z,6.17
2022-10-18T22:48:54.356Z,4.05
2022-10-18T22:51:22.619Z,7.45
2022-10-18T22:53:50.830Z,6.25
2022-10-18T22:56:19.784Z,8.08
2022-10-18T22:58:48.389Z,7.60
2022-10-18T23:01:18.048Z,8.30
2022-10-18T23:03:46.331Z,6.45
2022-10-18T23:06:21.971Z,5.00
2022-10-18T23:08:50.878Z,4.33
2022-10-18T23:11:39.885Z,8.78
2022-10-18T23:14:08.173Z,5.05
2022-10-18T23:16:36.411Z,7.30
2022-10-18T23:19:05.077Z,7.30
2022-10-18T23:21:34.161Z,4.87
2022-10-18T23:24:03.321Z,9.03
2022-10-18T23:26:31.554Z,6.17
2022-10-18T23:28:59.915Z,9.15
2022-10-18T23:31:29.699Z,8.68
2022-10-18T23:33:59.096Z,10.88
2022-10-18T23:36:27.679Z,5.65
2022-10-18T23:38:55.964Z,7.35
2022-10-18T23:41:24.539Z,5.80
2022-10-18T23:43:52.830Z,10.18
2022-10-18T23:46:41.862Z,6.00
2022-10-18T23:49:10.069Z,7.55
2022-10-18T23:51:38.255Z,5.78
2022-10-18T23:54:06.409Z,4.78
2022-10-18T23:56:34.607Z,7.87
2022-10-18T23:59:02.810Z,4.28
